Time;durP1;ratioP1;P1;durP2;ratioP2;P2;SDS_P1;SDS_P2;PMS_P1;PMS_P2;Temp;Humidity;BMP_temperature;BMP_pressure;BME280_temperature;BME280_humidity;BME280_pressure;Samples;Min_cycle;Max_cycle;Signal;HPM_P1;HPM_P2
2021/10/02 05:36:15;;;;;;;6.75;1.90;;;17.30;71.10;;;;;;5457149;24;20062;-67
2021/10/02 05:38:40;;;;;;;5.78;1.95;;;17.30;70.30;;;;;;4802606;29;20104;-70
2021/10/02 05:41:06;;;;;;;6.75;2.30;;;17.10;70.10;;;;;;4790197;30;20159;-71
2021/10/02 05:43:32;;;;;;;7.55;2.95;;;17.00;70.10;;;;;;4790296;30;20057;-71
2021/10/02 05:45:57;;;;;;;5.57;2.20;;;16.80;70.60;;;;;;4789676;29;20051;-71
2021/10/02 05:48:23;;;;;;;4.93;1.95;;;16.70;70.90;;;;;;4789451;30;20063;-71
2021/10/02 05:50:49;;;;;;;3.33;1.88;;;16.60;71.20;;;;;;4790310;30;20086;-72
2021/10/02 05:53:14;;;;;;;4.63;2.45;;;16.50;71.40;;;;;;4791511;29;20073;-73
2021/10/02 05:55:40;;;;;;;5.88;2.70;;;16.40;71.50;;;;;;4809583;29;20047;-71
2021/10/02 05:58:06;;;;;;;3.83;2.15;;;16.40;72.70;;;;;;4811311;29;20454;-74
2021/10/02 06:00:32;;;;;;;5.97;2.35;;;16.30;72.40;;;;;;4811063;29;20099;-74
2021/10/02 06:02:59;;;;;;;4.45;2.50;;;16.30;72.60;;;;;;4810569;29;20063;-74
2021/10/02 06:05:26;;;;;;;5.97;2.80;;;16.20;72.80;;;;;;4804529;29;20082;-70
2021/10/02 06:07:53;;;;;;;4.55;2.03;;;16.20;72.90;;;;;;4810960;29;20059;-71
2021/10/02 06:10:20;;;;;;;5.25;1.85;;;16.10;73.20;;;;;;4810531;29;20058;-70
2021/10/02 06:12:45;;;;;;;5.43;1.50;;;16.10;73.50;;;;;;4810188;29;20423;-70
2021/10/02 06:15:11;;;;;;;3.83;1.45;;;16.20;73.40;;;;;;4810649;29;20082;-70
2021/10/02 06:17:37;;;;;;;4.05;1.23;;;16.30;73.40;;;;;;4810063;29;20515;-70
2021/10/02 06:20:03;;;;;;;9.65;1.63;;;16.30;73.30;;;;;;4810152;29;20090;-70
2021/10/02 06:22:29;;;;;;;5.10;2.05;;;16.40;73.90;;;;;;4810719;29;20415;-71
2021/10/02 06:24:58;;;;;;;11.38;2.20;;;16.50;74.50;;;;;;4810137;29;20154;-73
2021/10/02 06:27:23;;;;;;;4.80;1.60;;;16.60;75.00;;;;;;4810168;29;20134;-70
2021/10/02 06:29:49;;;;;;;5.68;1.08;;;16.60;75.50;;;;;;4810295;29;20057;-69
2021/10/02 06:32:15;;;;;;;7.63;1.00;;;16.80;74.80;;;;;;4810719;29;20058;-70
2021/10/02 06:34:40;;;;;;;13.13;1.27;;;17.10;74.70;;;;;;4809602;29;20039;-70
2021/10/02 06:37:06;;;;;;;11.40;1.65;;;17.20;74.60;;;;;;4816445;29;20457;-70
2021/10/02 06:39:33;;;;;;;8.05;1.23;;;17.30;74.90;;;;;;4828142;29;20057;-69
2021/10/02 06:42:01;;;;;;;8.13;0.98;;;17.50;74.80;;;;;;4827353;29;20411;-70
2021/10/02 06:44:27;;;;;;;6.63;1.30;;;17.60;74.60;;;;;;4828124;29;20054;-71
2021/10/02 06:46:52;;;;;;;9.32;0.77;;;17.70;74.60;;;;;;4827660;29;20061;-70
2021/10/02 06:49:21;;;;;;;8.23;1.02;;;17.80;74.60;;;;;;4812216;29;20061;-71
2021/10/02 06:51:47;;;;;;;5.32;0.98;;;17.90;74.70;;;;;;4828198;29;20428;-71
2021/10/02 06:54:14;;;;;;;7.13;1.23;;;18.00;74.90;;;;;;4815388;29;20051;-70
2021/10/02 06:56:40;;;;;;;4.75;1.08;;;18.00;74.50;;;;;;4817320;29;20146;-70
2021/10/02 06:59:06;;;;;;;8.15;1.40;;;18.00;74.60;;;;;;4817028;29;20497;-70
2021/10/02 07:01:31;;;;;;;10.63;1.38;;;17.90;74.10;;;;;;4792766;29;20047;-70
2021/10/02 07:03:57;;;;;;;8.05;1.10;;;17.70;74.50;;;;;;4793709;29;20466;-70
2021/10/02 07:06:23;;;;;;;9.98;0.98;;;17.60;74.70;;;;;;4809264;29;20047;-71
2021/10/02 07:08:49;;;;;;;10.60;1.15;;;17.70;75.50;;;;;;4809272;29;20090;-70
2021/10/02 07:11:14;;;;;;;4.80;1.00;;;17.80;75.60;;;;;;4793598;29;20059;-70
2021/10/02 07:13:40;;;;;;;8.68;1.30;;;17.80;75.60;;;;;;4809235;29;20058;-70
2021/10/02 07:16:06;;;;;;;3.92;0.88;;;17.80;75.50;;;;;;4809865;29;20047;-70
2021/10/02 07:18:31;;;;;;;5.03;1.08;;;17.90;75.50;;;;;;4793895;29;20450;-70
2021/10/02 07:20:57;;;;;;;7.13;1.27;;;17.90;75.30;;;;;;4809999;29;20050;-70
2021/10/02 07:23:24;;;;;;;12.50;1.05;;;18.00;75.20;;;;;;4809514;29;20050;-69
2021/10/02 07:25:50;;;;;;;7.00;0.77;;;18.00;75.00;;;;;;4808838;29;20087;-69
2021/10/02 07:28:16;;;;;;;7.18;0.90;;;18.00;74.90;;;;;;4808951;29;20038;-69
2021/10/02 07:30:41;;;;;;;6.80;1.00;;;18.10;74.90;;;;;;4809148;29;20051;-69
2021/10/02 07:33:07;;;;;;;4.82;0.60;;;18.10;75.40;;;;;;4809284;29;20058;-69
2021/10/02 07:35:33;;;;;;;15.68;1.75;;;18.20;74.70;;;;;;4808859;29;20051;-69
2021/10/02 07:37:58;;;;;;;5.05;1.25;;;17.90;73.90;;;;;;4808626;29;20203;-69
2021/10/02 07:40:24;;;;;;;15.13;1.40;;;17.70;75.10;;;;;;4808002;29;20055;-69
2021/10/02 07:42:53;;;;;;;9.75;0.95;;;18.00;75.40;;;;;;4809128;29;20058;-68
2021/10/02 07:45:21;;;;;;;5.60;0.80;;;18.20;75.30;;;;;;4809276;29;20058;-69
2021/10/02 07:47:51;;;;;;;5.40;1.10;;;18.30;74.80;;;;;;4809126;29;20065;-70
2021/10/02 07:50:17;;;;;;;4.57;1.00;;;18.40;74.60;;;;;;4801868;29;20111;-69
2021/10/02 07:52:43;;;;;;;12.93;2.00;;;18.60;74.30;;;;;;4800070;29;20050;-68
2021/10/02 07:55:12;;;;;;;21.10;2.25;;;18.40;73.50;;;;;;4827352;29;20050;-68
2021/10/02 07:57:39;;;;;;;10.10;1.20;;;18.20;74.10;;;;;;4827380;29;20129;-69
2021/10/02 08:00:06;;;;;;;7.93;1.38;;;18.00;74.30;;;;;;4827677;29;20458;-69
2021/10/02 08:02:32;;;;;;;4.65;0.82;;;17.80;74.70;;;;;;4827203;29;20050;-71
2021/10/02 08:04:59;;;;;;;6.68;0.80;;;17.90;75.60;;;;;;4827234;29;20054;-71
2021/10/02 08:07:24;;;;;;;7.93;1.10;;;18.10;75.50;;;;;;4827669;29;20485;-69
2021/10/02 08:09:52;;;;;;;11.15;1.52;;;18.30;75.00;;;;;;4826916;29;20082;-69
2021/10/02 08:12:18;;;;;;;7.90;0.95;;;18.30;74.60;;;;;;4826564;29;20133;-70
2021/10/02 08:14:44;;;;;;;6.57;0.95;;;18.50;74.60;;;;;;4827117;29;20125;-70
2021/10/02 08:17:11;;;;;;;3.85;1.00;;;18.60;74.40;;;;;;4827068;29;20057;-69
2021/10/02 08:19:39;;;;;;;5.63;1.10;;;18.70;74.20;;;;;;4826927;29;20101;-70
2021/10/02 08:22:07;;;;;;;7.70;1.05;;;18.80;74.00;;;;;;4826347;29;20482;-70
2021/10/02 08:24:33;;;;;;;5.32;1.15;;;18.80;73.90;;;;;;4826744;29;20058;-70
2021/10/02 08:27:00;;;;;;;7.60;1.00;;;18.90;73.80;;;;;;4826367;29;20068;-70
2021/10/02 08:29:26;;;;;;;5.90;1.08;;;18.80;73.70;;;;;;4826582;29;20137;-67
2021/10/02 08:31:52;;;;;;;6.10;1.60;;;18.90;73.80;;;;;;4826607;29;20064;-69
2021/10/02 08:34:18;;;;;;;6.40;1.30;;;18.80;73.60;;;;;;4826493;29;20062;-68
2021/10/02 08:36:44;;;;;;;3.85;1.20;;;18.80;73.80;;;;;;4826835;29;20366;-68
2021/10/02 08:39:11;;;;;;;5.85;1.35;;;18.70;73.80;;;;;;4811826;29;20125;-69
2021/10/02 08:41:38;;;;;;;7.70;1.60;;;18.70;73.90;;;;;;4796186;29;20055;-69
2021/10/02 08:44:05;;;;;;;10.77;1.67;;;18.70;74.10;;;;;;4808186;29;20055;-68
2021/10/02 08:46:31;;;;;;;5.78;1.45;;;18.70;74.10;;;;;;4800056;29;20475;-68
2021/10/02 08:49:19;;;;;;;5.50;1.25;;;18.60;74.30;;;;;;4802329;29;20055;-69
2021/10/02 08:51:48;;;;;;;7.43;2.13;;;18.60;74.60;;;;;;4807970;29;20112;-73
2021/10/02 08:54:17;;;;;;;10.20;2.95;;;18.60;76.00;;;;;;4802680;29;20051;-74
2021/10/02 08:56:44;;;;;;;8.85;1.77;;;18.70;76.60;;;;;;4807316;29;20051;-74
2021/10/02 08:59:16;;;;;;;8.90;2.50;;;18.60;75.20;;;;;;4808182;29;20085;-75
2021/10/02 09:01:48;;;;;;;7.05;2.13;;;18.60;76.00;;;;;;4813566;29;20347;-80
2021/10/02 09:04:17;;;;;;;6.17;2.40;;;18.70;75.70;;;;;;4825827;29;20466;-75
2021/10/02 09:06:43;;;;;;;8.65;3.42;;;18.70;75.30;;;;;;4807725;29;20069;-75
2021/10/02 09:09:09;;;;;;;10.27;3.65;;;18.80;75.00;;;;;;4807521;29;20055;-75
2021/10/02 09:11:36;;;;;;;11.25;4.20;;;18.70;74.50;;;;;;4791703;29;20150;-75
2021/10/02 09:14:02;;;;;;;10.38;3.40;;;18.80;74.30;;;;;;4807119;29;20112;-76
2021/10/02 09:16:27;;;;;;;10.00;5.10;;;18.80;74.10;;;;;;4791369;29;20436;-74
2021/10/02 09:18:53;;;;;;;8.30;5.03;;;18.70;73.80;;;;;;4807864;29;20130;-75
2021/10/02 09:21:19;;;;;;;5.95;4.35;;;18.70;73.80;;;;;;4807618;29;20111;-74
2021/10/02 09:23:49;;;;;;;11.18;4.80;;;18.70;73.90;;;;;;4807458;29;20133;-75
2021/10/02 09:26:16;;;;;;;11.05;5.63;;;18.70;74.90;;;;;;4807236;29;20489;-76
2021/10/02 09:28:45;;;;;;;11.45;5.63;;;18.60;74.00;;;;;;4791369;29;20063;-75
2021/10/02 09:31:15;;;;;;;8.43;5.55;;;18.50;74.70;;;;;;4794039;29;20086;-75
2021/10/02 09:33:46;;;;;;;13.68;6.38;;;18.60;75.10;;;;;;4811066;29;20065;-74
2021/10/02 09:36:22;;;;;;;15.73;6.72;;;18.50;75.10;;;;;;4811677;29;20054;-75
2021/10/02 09:38:52;;;;;;;13.57;7.20;;;18.50;75.90;;;;;;4829380;29;20070;-76
2021/10/02 09:41:20;;;;;;;12.45;7.50;;;18.50;76.50;;;;;;4828909;29;20060;-75
2021/10/02 09:43:48;;;;;;;12.55;6.70;;;18.50;76.70;;;;;;4842636;29;20057;-74
2021/10/02 09:46:14;;;;;;;9.27;6.22;;;18.50;76.40;;;;;;4831272;29;20060;-76
2021/10/02 09:48:40;;;;;;;12.48;5.72;;;18.50;76.00;;;;;;4823609;29;20038;-76
2021/10/02 09:51:09;;;;;;;9.38;6.03;;;18.50;75.90;;;;;;4826043;29;20118;-74
2021/10/02 09:53:40;;;;;;;8.07;5.20;;;18.50;75.70;;;;;;4811859;29;20086;-75
2021/10/02 09:56:08;;;;;;;10.70;5.78;;;18.50;75.70;;;;;;4828266;29;20380;-73
2021/10/02 09:58:35;;;;;;;9.48;6.30;;;18.50;75.60;;;;;;4811824;29;20065;-69
2021/10/02 10:01:04;;;;;;;11.52;6.53;;;18.50;75.20;;;;;;4828537;29;20054;-71
2021/10/02 10:03:59;;;;;;;9.88;5.20;;;18.50;74.70;;;;;;4813197;29;20065;-69
2021/10/02 10:06:27;;;;;;;9.85;5.57;;;18.50;74.70;;;;;;4817604;29;20484;-69
2021/10/02 10:09:08;;;;;;;11.32;6.53;;;18.50;75.10;;;;;;4846848;29;20093;-70
2021/10/02 10:11:47;;;;;;;10.82;5.55;;;18.50;75.80;;;;;;4830600;29;20069;-69
2021/10/02 10:14:23;;;;;;;17.80;8.23;;;18.50;75.30;;;;;;4828361;29;20042;-71
2021/10/02 10:16:50;;;;;;;12.70;6.47;;;18.60;74.90;;;;;;4845116;29;20335;-74
2021/10/02 10:19:20;;;;;;;12.93;6.88;;;18.60;75.50;;;;;;4847565;29;20054;-69
2021/10/02 10:22:07;;;;;;;20.17;7.63;;;18.60;75.80;;;;;;4846029;29;20085;-70
2021/10/02 10:24:34;;;;;;;18.90;7.57;;;18.60;76.20;;;;;;4810754;29;20108;-68
2021/10/02 10:27:00;;;;;;;15.32;6.28;;;18.60;76.60;;;;;;4812615;29;20079;-68
2021/10/02 10:29:41;;;;;;;14.05;6.40;;;18.50;77.30;;;;;;4812294;29;20066;-68
2021/10/02 10:32:08;;;;;;;14.38;6.57;;;18.50;78.70;;;;;;4811012;29;20055;-68
2021/10/02 10:34:38;;;;;;;11.70;6.20;;;18.50;78.40;;;;;;4812550;29;20134;-68
2021/10/02 10:37:08;;;;;;;10.98;6.45;;;18.50;78.70;;;;;;4845916;29;20061;-68
2021/10/02 10:39:35;;;;;;;11.57;5.88;;;18.50;79.10;;;;;;4846755;29;20054;-68
2021/10/02 10:42:03;;;;;;;11.75;5.90;;;18.50;79.10;;;;;;4845094;29;20058;-68
2021/10/02 10:44:29;;;;;;;11.35;5.50;;;18.50;79.20;;;;;;4846109;29;20077;-68
2021/10/02 10:46:55;;;;;;;10.02;5.00;;;18.40;79.10;;;;;;4846411;29;20064;-68
2021/10/02 10:49:25;;;;;;;8.30;5.13;;;18.40;79.10;;;;;;4830175;29;20054;-68
2021/10/02 10:51:51;;;;;;;12.63;5.20;;;18.40;79.20;;;;;;4828294;29;20157;-68
2021/10/02 10:54:18;;;;;;;11.13;4.50;;;18.40;78.90;;;;;;4828922;29;20058;-68
2021/10/02 10:56:49;;;;;;;10.77;4.07;;;18.40;79.50;;;;;;4827534;29;20125;-72
2021/10/02 10:59:19;;;;;;;15.48;4.82;;;18.40;78.30;;;;;;4828263;29;20197;-74
2021/10/02 11:01:47;;;;;;;14.10;4.38;;;18.40;76.90;;;;;;4827861;29;20057;-76
2021/10/02 11:04:37;;;;;;;12.52;4.22;;;18.50;75.50;;;;;;4812209;29;20141;-73
2021/10/02 11:07:04;;;;;;;14.18;4.00;;;18.50;74.20;;;;;;4805118;29;20077;-69
2021/10/02 11:09:43;;;;;;;10.38;3.42;;;18.50;73.60;;;;;;4826194;29;20335;-68
2021/10/02 11:12:13;;;;;;;8.93;3.17;;;18.50;72.90;;;;;;4827872;29;20050;-68
2021/10/02 11:14:50;;;;;;;9.02;3.50;;;18.50;72.90;;;;;;4827969;29;20098;-69
2021/10/02 11:17:41;;;;;;;7.90;3.60;;;18.50;73.20;;;;;;4841831;29;20053;-68
2021/10/02 11:20:21;;;;;;;6.82;2.95;;;18.50;73.40;;;;;;4835043;29;20054;-68
2021/10/02 11:23:27;;;;;;;6.43;3.03;;;18.50;73.30;;;;;;4846049;29;20341;-69
2021/10/02 11:26:18;;;;;;;7.15;3.08;;;18.50;73.20;;;;;;4810894;29;20062;-69
2021/10/02 11:28:45;;;;;;;8.52;3.20;;;18.50;73.30;;;;;;4846038;29;20045;-68
2021/10/02 11:31:17;;;;;;;10.25;3.10;;;18.50;73.20;;;;;;4845849;29;20046;-68
2021/10/02 11:33:58;;;;;;;9.75;3.08;;;18.40;73.00;;;;;;4846518;29;20060;-69
2021/10/02 11:39:22;;;;;;;7.80;3.47;;;18.50;73.30;;;;;;4845732;29;20144;-69
2021/10/02 11:41:54;;;;;;;10.57;3.25;;;18.40;73.50;;;;;;4845347;29;20082;-68
2021/10/02 11:44:32;;;;;;;5.88;3.10;;;18.50;73.40;;;;;;4845698;29;20054;-68
2021/10/02 11:47:38;;;;;;;7.68;3.00;;;18.50;73.40;;;;;;4844694;29;20050;-68
2021/10/02 11:50:12;;;;;;;5.50;3.00;;;18.50;73.60;;;;;;4809780;29;20054;-68
2021/10/02 11:52:44;;;;;;;6.65;3.10;;;18.40;73.70;;;;;;4819490;29;20378;-68
2021/10/02 11:55:40;;;;;;;4.88;3.28;;;18.40;73.70;;;;;;4827613;29;20432;-68
2021/10/02 11:58:09;;;;;;;4.55;3.20;;;18.40;73.80;;;;;;4840846;29;20085;-69
2021/10/02 12:00:34;;;;;;;5.07;3.28;;;18.40;73.70;;;;;;4843976;29;20060;-69
2021/10/02 12:03:03;;;;;;;6.60;3.30;;;18.40;73.70;;;;;;4842803;29;20046;-68
2021/10/02 12:05:30;;;;;;;6.82;3.13;;;18.40;73.80;;;;;;4845548;29;20046;-69
2021/10/02 12:07:56;;;;;;;6.65;3.60;;;18.40;73.80;;;;;;4833363;29;20062;-69
2021/10/02 12:10:22;;;;;;;5.82;3.22;;;18.40;73.80;;;;;;4826619;29;20122;-69
2021/10/02 12:12:48;;;;;;;6.40;3.13;;;18.40;73.80;;;;;;4836655;29;20465;-68
2021/10/02 12:15:34;;;;;;;7.35;3.50;;;18.40;73.80;;;;;;4844231;29;20057;-68
2021/10/02 12:18:00;;;;;;;6.43;3.55;;;18.40;73.70;;;;;;4829046;29;20484;-69
2021/10/02 12:20:41;;;;;;;5.78;3.00;;;18.40;73.70;;;;;;4845046;29;20062;-69
2021/10/02 12:23:09;;;;;;;6.22;3.35;;;18.40;73.60;;;;;;4845014;29;20054;-68
2021/10/02 12:25:34;;;;;;;6.55;3.33;;;18.40;73.60;;;;;;4844569;29;20072;-68
2021/10/02 12:28:00;;;;;;;6.22;3.45;;;18.40;73.60;;;;;;4842635;29;20046;-68
2021/10/02 12:30:26;;;;;;;6.47;3.50;;;18.40;73.50;;;;;;4818876;29;20046;-69
2021/10/02 12:33:00;;;;;;;6.55;3.60;;;18.40;73.50;;;;;;4829096;29;20050;-69
2021/10/02 12:35:27;;;;;;;3.58;3.22;;;18.40;73.50;;;;;;4829131;29;20050;-69
2021/10/02 12:37:56;;;;;;;4.55;3.22;;;18.40;73.40;;;;;;4826604;29;20127;-69
2021/10/02 12:40:23;;;;;;;7.47;3.53;;;18.40;73.40;;;;;;4826413;29;20058;-69
2021/10/02 12:42:54;;;;;;;4.45;3.30;;;18.40;73.40;;;;;;4826647;29;20141;-68
2021/10/02 12:45:24;;;;;;;5.82;3.47;;;18.40;73.40;;;;;;4826179;29;20054;-69
2021/10/02 12:47:53;;;;;;;7.47;3.00;;;18.40;73.40;;;;;;4826649;29;20051;-68
2021/10/02 12:50:33;;;;;;;5.55;3.17;;;18.40;73.40;;;;;;4826599;29;20050;-68
2021/10/02 12:52:59;;;;;;;6.50;3.30;;;18.40;73.40;;;;;;4833863;29;20081;-68
2021/10/02 12:55:26;;;;;;;3.92;3.00;;;18.40;73.40;;;;;;4828052;29;20054;-68
2021/10/02 12:57:52;;;;;;;4.53;2.90;;;18.40;73.40;;;;;;4842639;29;20046;-68
2021/10/02 13:00:29;;;;;;;5.53;3.50;;;18.40;73.40;;;;;;4843993;29;20119;-68
2021/10/02 13:02:57;;;;;;;5.43;3.08;;;18.40;73.40;;;;;;4832597;29;20064;-68
2021/10/02 13:05:26;;;;;;;3.42;3.00;;;18.40;73.40;;;;;;4825281;29;20050;-69
2021/10/02 13:08:04;;;;;;;4.05;2.67;;;18.40;73.40;;;;;;4826087;29;20096;-68
2021/10/02 13:10:30;;;;;;;2.72;2.47;;;18.40;73.40;;;;;;4840485;29;20060;-69
2021/10/02 13:13:08;;;;;;;5.13;3.05;;;18.40;73.40;;;;;;4844341;29;20473;-68
2021/10/02 13:15:48;;;;;;;4.20;2.88;;;18.30;73.30;;;;;;4844081;29;20046;-68
2021/10/02 13:18:19;;;;;;;4.13;2.80;;;18.40;73.40;;;;;;4844519;29;20060;-68
2021/10/02 13:20:48;;;;;;;4.63;3.00;;;18.30;73.30;;;;;;4843548;29;20148;-68
2021/10/02 13:23:21;;;;;;;3.88;2.72;;;18.30;73.30;;;;;;4839558;29;20090;-75
2021/10/02 13:25:50;;;;;;;6.75;3.25;;;18.30;73.10;;;;;;4821075;29;20042;-72
2021/10/02 13:28:32;;;;;;;12.63;3.47;;;18.40;72.50;;;;;;4824572;29;20466;-69
2021/10/02 13:31:19;;;;;;;9.88;3.20;;;18.30;72.10;;;;;;4825903;29;20070;-69
2021/10/02 13:33:47;;;;;;;10.10;2.85;;;18.30;72.50;;;;;;4826379;29;20063;-69
2021/10/02 13:36:31;;;;;;;11.60;2.58;;;18.30;72.90;;;;;;4834390;29;20084;-69
2021/10/02 13:39:18;;;;;;;6.13;2.97;;;18.30;73.30;;;;;;4823311;29;20104;-70
2021/10/02 13:41:49;;;;;;;5.90;2.55;;;18.20;73.80;;;;;;4825964;29;20129;-70
2021/10/02 13:44:26;;;;;;;8.68;3.58;;;18.30;73.80;;;;;;4825810;29;20050;-69
2021/10/02 13:46:54;;;;;;;7.45;3.58;;;18.30;73.80;;;;;;4807953;29;20355;-69
2021/10/02 13:49:21;;;;;;;10.32;3.80;;;18.30;74.00;;;;;;4819835;29;20069;-69
2021/10/02 13:51:46;;;;;;;7.90;3.38;;;18.40;74.20;;;;;;4825584;29;20416;-68
2021/10/02 13:54:12;;;;;;;6.97;3.05;;;18.30;74.30;;;;;;4825491;29;20115;-68
2021/10/02 13:56:40;;;;;;;5.28;2.92;;;18.30;74.40;;;;;;4827094;29;20475;-68
2021/10/02 13:59:07;;;;;;;7.20;2.80;;;18.30;74.40;;;;;;4826614;29;20174;-68
2021/10/02 14:01:33;;;;;;;15.88;3.75;;;18.40;74.30;;;;;;4828131;29;20050;-70
2021/10/02 14:03:59;;;;;;;8.30;3.30;;;18.40;74.00;;;;;;4808788;29;20474;-68
2021/10/02 14:06:25;;;;;;;12.98;3.78;;;18.40;74.40;;;;;;4819507;29;20054;-68
2021/10/02 14:08:50;;;;;;;9.45;3.13;;;18.40;73.40;;;;;;4822711;29;20061;-68
2021/10/02 14:11:17;;;;;;;9.80;3.30;;;18.40;73.30;;;;;;4825917;29;20054;-67
2021/10/02 14:13:44;;;;;;;7.45;3.85;;;18.40;73.20;;;;;;4844061;29;20060;-67
2021/10/02 14:16:10;;;;;;;8.88;3.75;;;18.40;72.90;;;;;;4844156;29;20054;-68
2021/10/02 14:18:36;;;;;;;8.57;3.72;;;18.40;72.80;;;;;;4846298;29;20098;-68
2021/10/02 14:21:02;;;;;;;7.93;3.80;;;18.40;72.70;;;;;;4847015;29;20054;-68
2021/10/02 14:23:28;;;;;;;9.52;3.17;;;18.40;72.60;;;;;;4846474;29;20050;-68
2021/10/02 14:25:54;;;;;;;7.57;3.58;;;18.40;72.50;;;;;;4846771;29;20081;-68
2021/10/02 14:28:19;;;;;;;6.85;3.33;;;18.40;72.40;;;;;;4829348;29;20411;-68
2021/10/02 14:30:45;;;;;;;10.30;3.45;;;18.40;72.10;;;;;;4828276;29;20127;-68
2021/10/02 14:33:12;;;;;;;9.60;3.55;;;18.40;72.10;;;;;;4835259;29;20462;-70
2021/10/02 14:35:37;;;;;;;8.98;4.05;;;18.40;72.30;;;;;;4811292;29;20395;-68
2021/10/02 14:38:03;;;;;;;9.35;2.78;;;18.40;72.50;;;;;;4828162;29;20066;-68
2021/10/02 14:40:29;;;;;;;8.73;3.65;;;18.40;72.90;;;;;;4812053;29;20447;-68
2021/10/02 14:42:54;;;;;;;12.20;3.92;;;18.40;73.10;;;;;;4828515;29;20050;-68
2021/10/02 14:45:23;;;;;;;8.23;3.10;;;18.40;73.30;;;;;;4828485;29;20446;-68
2021/10/02 14:47:48;;;;;;;8.95;3.85;;;18.30;73.50;;;;;;4827623;29;20062;-68
2021/10/02 14:50:14;;;;;;;14.70;4.35;;;18.30;73.70;;;;;;4827940;29;20050;-67
2021/10/02 14:52:43;;;;;;;9.48;4.30;;;18.30;74.00;;;;;;4828456;29;20058;-68
2021/10/02 14:55:11;;;;;;;12.48;4.75;;;18.30;74.00;;;;;;4828103;29;20115;-69
2021/10/02 14:57:37;;;;;;;14.05;4.60;;;18.20;74.20;;;;;;4835799;29;20042;-75
2021/10/02 15:00:06;;;;;;;7.43;4.22;;;18.20;74.30;;;;;;4844638;29;20500;-68
2021/10/02 15:02:32;;;;;;;13.73;4.18;;;18.30;74.40;;;;;;4805924;29;20054;-67
2021/10/02 15:04:58;;;;;;;44.53;9.90;;;18.20;74.40;;;;;;4846710;29;20121;-71
2021/10/02 15:07:26;;;;;;;46.42;10.73;;;18.20;74.50;;;;;;4845820;29;20061;-70
2021/10/02 15:09:53;;;;;;;20.08;7.07;;;18.30;74.70;;;;;;4845838;29;20054;-71
2021/10/02 15:12:19;;;;;;;17.45;6.95;;;18.30;74.30;;;;;;4837870;29;20458;-72
2021/10/02 15:14:45;;;;;;;9.60;5.82;;;18.30;73.90;;;;;;4826756;29;20133;-73
2021/10/02 15:17:12;;;;;;;14.20;5.90;;;18.30;73.70;;;;;;4829293;29;20141;-73
2021/10/02 15:19:38;;;;;;;11.45;5.55;;;18.30;73.70;;;;;;4845974;29;20053;-72
2021/10/02 15:22:05;;;;;;;9.73;4.90;;;18.30;73.60;;;;;;4845784;29;20125;-74
2021/10/02 15:24:43;;;;;;;11.68;5.57;;;18.30;73.90;;;;;;4816999;29;20054;-67
2021/10/02 15:27:13;;;;;;;9.52;5.28;;;18.30;74.30;;;;;;4827381;29;20050;-67
2021/10/02 15:29:43;;;;;;;18.55;5.43;;;18.40;74.50;;;;;;4837679;29;20485;-68
2021/10/02 15:32:15;;;;;;;8.43;4.07;;;18.40;74.90;;;;;;4839106;29;20050;-71
2021/10/02 15:34:42;;;;;;;9.35;4.30;;;18.40;75.10;;;;;;4827513;29;20110;-71
2021/10/02 15:37:08;;;;;;;6.50;4.20;;;18.50;75.00;;;;;;4827013;29;20141;-71
2021/10/02 15:39:34;;;;;;;7.90;3.45;;;18.40;74.90;;;;;;4827581;29;20120;-71
2021/10/02 15:42:03;;;;;;;6.40;3.25;;;18.50;74.80;;;;;;4830101;29;20382;-71
2021/10/02 15:44:30;;;;;;;5.28;2.50;;;18.50;74.60;;;;;;4837135;29;20458;-72
2021/10/02 15:46:58;;;;;;;4.82;2.53;;;18.40;74.40;;;;;;4827964;29;20108;-71
2021/10/02 15:49:27;;;;;;;8.27;3.03;;;18.40;74.30;;;;;;4827129;29;20114;-68
2021/10/02 15:51:55;;;;;;;5.35;2.30;;;18.40;74.10;;;;;;4827776;29;20360;-68
2021/10/02 15:54:23;;;;;;;5.30;2.78;;;18.40;74.10;;;;;;4833571;29;20065;-67
2021/10/02 15:56:54;;;;;;;5.22;2.67;;;18.40;74.00;;;;;;4843464;29;20126;-68
2021/10/02 15:59:20;;;;;;;7.97;3.00;;;18.40;74.00;;;;;;4844898;29;20050;-68
2021/10/02 16:01:48;;;;;;;8.68;2.50;;;18.40;74.10;;;;;;4838433;29;20046;-67
2021/10/02 16:04:28;;;;;;;5.25;2.63;;;18.40;74.10;;;;;;4827338;29;20125;-67
2021/10/02 16:06:57;;;;;;;5.47;3.05;;;18.40;74.20;;;;;;4826825;29;20054;-67
2021/10/02 16:09:23;;;;;;;7.40;2.72;;;18.40;74.30;;;;;;4827040;29;20058;-67
2021/10/02 16:11:52;;;;;;;6.15;2.45;;;18.40;74.30;;;;;;4831831;29;20050;-67
2021/10/02 16:14:23;;;;;;;7.53;2.30;;;18.40;74.50;;;;;;4813865;29;20065;-68
2021/10/02 16:16:51;;;;;;;9.40;2.75;;;18.40;74.60;;;;;;4844254;29;20386;-67
2021/10/02 16:19:23;;;;;;;4.65;2.20;;;18.40;74.90;;;;;;4825279;29;20054;-67
2021/10/02 16:21:49;;;;;;;6.38;2.55;;;18.40;74.70;;;;;;4832288;29;20038;-67
2021/10/02 16:24:15;;;;;;;7.30;2.70;;;18.40;75.10;;;;;;4845086;29;20473;-67
2021/10/02 16:26:41;;;;;;;4.22;2.20;;;18.40;75.30;;;;;;4832896;29;20064;-67
2021/10/02 16:29:08;;;;;;;8.60;2.60;;;18.40;75.30;;;;;;4826387;29;20062;-67
2021/10/02 16:31:34;;;;;;;10.63;2.33;;;18.40;75.40;;;;;;4826321;29;20061;-67
2021/10/02 16:34:00;;;;;;;5.97;2.33;;;18.40;75.40;;;;;;4825907;29;20115;-67
2021/10/02 16:36:29;;;;;;;9.07;2.13;;;18.40;75.50;;;;;;4825546;29;20548;-68
2021/10/02 16:38:59;;;;;;;8.65;2.65;;;18.40;75.60;;;;;;4826370;29;20058;-68
2021/10/02 16:41:28;;;;;;;25.98;4.32;;;18.40;75.50;;;;;;4827713;29;20054;-68
2021/10/02 16:43:54;;;;;;;11.30;3.00;;;18.40;75.50;;;;;;4844128;29;20490;-68
2021/10/02 16:46:20;;;;;;;8.45;2.30;;;18.40;75.50;;;;;;4844733;29;20054;-68
2021/10/02 16:48:46;;;;;;;10.07;2.88;;;18.40;75.60;;;;;;4844302;29;20126;-68
2021/10/02 16:51:12;;;;;;;7.30;2.30;;;18.40;75.70;;;;;;4844050;29;20454;-68
2021/10/02 16:53:38;;;;;;;6.15;2.28;;;18.40;75.80;;;;;;4844185;29;20050;-68
2021/10/02 16:56:04;;;;;;;8.40;2.30;;;18.40;75.80;;;;;;4842680;29;20046;-68
2021/10/02 16:58:29;;;;;;;8.40;2.47;;;18.40;75.80;;;;;;4843637;29;20056;-68
2021/10/02 17:00:56;;;;;;;7.50;2.40;;;18.40;75.90;;;;;;4844561;29;20061;-67
2021/10/02 17:03:22;;;;;;;9.02;2.58;;;18.40;75.90;;;;;;4825299;29;20050;-68
2021/10/02 17:05:48;;;;;;;5.25;2.13;;;18.40;75.80;;;;;;4826362;29;20054;-68
2021/10/02 17:08:19;;;;;;;6.65;2.03;;;18.40;75.70;;;;;;4825987;29;20046;-67
2021/10/02 17:10:45;;;;;;;7.53;2.03;;;18.40;75.70;;;;;;4826134;29;20073;-68
2021/10/02 17:54:21;;;;;;;5.05;1.98;;;18.40;75.20;;;;;;5632481;24;20050;-68
2021/10/02 17:56:47;;;;;;;5.35;2.28;;;18.40;75.10;;;;;;4806752;29;20065;-67
2021/10/02 17:59:13;;;;;;;2.95;1.75;;;18.40;75.20;;;;;;4810928;29;20051;-67
2021/10/02 18:01:39;;;;;;;5.25;1.83;;;18.40;75.30;;;;;;4811037;29;20111;-67
2021/10/02 18:04:04;;;;;;;2.33;1.58;;;18.30;75.30;;;;;;4810910;29;20047;-67
2021/10/02 18:06:30;;;;;;;4.15;1.90;;;18.30;75.30;;;;;;4810091;29;20108;-67
2021/10/02 18:08:56;;;;;;;3.60;1.90;;;18.30;75.30;;;;;;4811603;29;20105;-67
2021/10/02 18:11:22;;;;;;;5.18;1.70;;;18.30;75.30;;;;;;4811355;29;20051;-67
2021/10/02 18:13:49;;;;;;;3.95;1.75;;;18.40;75.30;;;;;;4811264;29;20054;-70
2021/10/02 18:16:15;;;;;;;4.50;2.10;;;18.30;75.20;;;;;;4810388;29;20434;-68
2021/10/02 18:18:41;;;;;;;4.30;2.10;;;18.40;75.20;;;;;;4810834;29;20046;-68
2021/10/02 18:21:08;;;;;;;2.88;1.70;;;18.30;75.10;;;;;;4810934;29;20057;-68
2021/10/02 18:23:40;;;;;;;2.70;1.55;;;18.40;75.10;;;;;;4810117;29;20046;-68
2021/10/02 18:26:12;;;;;;;4.03;2.00;;;18.40;75.00;;;;;;4810380;29;20046;-68
2021/10/02 18:28:38;;;;;;;3.25;2.03;;;18.40;75.10;;;;;;4806219;29;20069;-67
2021/10/02 18:31:05;;;;;;;2.95;1.88;;;18.40;75.10;;;;;;4792501;30;20043;-67
2021/10/02 18:33:31;;;;;;;2.65;1.48;;;18.40;75.10;;;;;;4792514;30;20062;-68
2021/10/02 18:35:58;;;;;;;3.08;1.67;;;18.40;75.10;;;;;;4792278;30;20531;-68
2021/10/02 18:38:24;;;;;;;2.38;1.55;;;18.40;75.10;;;;;;4792887;30;20421;-68
2021/10/02 18:40:50;;;;;;;2.10;1.77;;;18.40;75.10;;;;;;4796448;29;20043;-68
2021/10/02 18:43:16;;;;;;;5.38;2.00;;;18.40;75.10;;;;;;4810401;29;20063;-68
2021/10/02 18:45:43;;;;;;;3.38;1.60;;;18.40;75.10;;;;;;4810738;29;20066;-68
2021/10/02 18:48:09;;;;;;;3.35;1.80;;;18.30;75.10;;;;;;4810310;29;20046;-68
2021/10/02 18:50:37;;;;;;;4.18;2.45;;;18.40;75.20;;;;;;4810036;29;20061;-68
2021/10/02 18:53:03;;;;;;;2.95;1.90;;;18.40;75.20;;;;;;4810426;29;20055;-68
2021/10/02 18:55:29;;;;;;;3.92;2.00;;;18.30;75.20;;;;;;4809939;29;20145;-68
2021/10/02 18:57:55;;;;;;;4.82;1.70;;;18.30;75.20;;;;;;4810660;29;20066;-68
2021/10/02 19:00:21;;;;;;;2.60;1.67;;;18.30;75.30;;;;;;4803265;29;20352;-69
2021/10/02 19:02:48;;;;;;;1.98;1.45;;;18.30;75.30;;;;;;4793009;29;20057;-68
2021/10/02 19:05:14;;;;;;;2.13;1.70;;;18.30;75.30;;;;;;4817185;29;20054;-69
2021/10/02 19:07:40;;;;;;;3.67;1.88;;;18.30;75.30;;;;;;4816368;29;20043;-67
2021/10/02 19:10:08;;;;;;;2.72;1.63;;;18.30;75.90;;;;;;4809392;29;20059;-67